sensor_id;sensor_type;location;lat;lon;timestamp;P1;durP1;ratioP1;P2;durP2;ratioP2
14472;SDS011;7322;50.872;4.386;2023-02-11T00:01:42;6.70;;;4.40;;
14472;SDS011;7322;50.872;4.386;2023-02-11T00:04:16;5.00;;;4.10;;
14472;SDS011;7322;50.872;4.386;2023-02-11T00:06:56;5.23;;;4.23;;
14472;SDS011;7322;50.872;4.386;2023-02-11T00:09:32;4.60;;;4.00;;
14472;SDS011;7322;50.872;4.386;2023-02-11T00:14:30;5.63;;;4.10;;
14472;SDS011;7322;50.872;4.386;2023-02-11T00:16:57;5.07;;;3.90;;
14472;SDS011;7322;50.872;4.386;2023-02-11T00:19:30;5.27;;;4.07;;
14472;SDS011;7322;50.872;4.386;2023-02-11T00:21:59;5.87;;;4.27;;
14472;SDS011;7322;50.872;4.386;2023-02-11T00:24:34;4.67;;;3.80;;
14472;SDS011;7322;50.872;4.386;2023-02-11T00:27:02;5.03;;;4.07;;
14472;SDS011;7322;50.872;4.386;2023-02-11T00:29:31;5.73;;;3.80;;
14472;SDS011;7322;50.872;4.386;2023-02-11T00:32:00;4.23;;;3.70;;
14472;SDS011;7322;50.872;4.386;2023-02-11T00:34:33;4.80;;;3.70;;
14472;SDS011;7322;50.872;4.386;2023-02-11T00:37:03;5.90;;;4.00;;
14472;SDS011;7322;50.872;4.386;2023-02-11T00:39:30;4.73;;;4.00;;
14472;SDS011;7322;50.872;4.386;2023-02-11T00:42:05;4.77;;;3.93;;
14472;SDS011;7322;50.872;4.386;2023-02-11T00:44:39;5.13;;;3.90;;
14472;SDS011;7322;50.872;4.386;2023-02-11T00:52:47;5.57;;;4.03;;
14472;SDS011;7322;50.872;4.386;2023-02-11T00:55:17;4.30;;;3.33;;
14472;SDS011;7322;50.872;4.386;2023-02-11T00:57:51;4.30;;;3.50;;
14472;SDS011;7322;50.872;4.386;2023-02-11T01:00:19;4.30;;;3.50;;
14472;SDS011;7322;50.872;4.386;2023-02-11T01:02:49;4.70;;;3.60;;
14472;SDS011;7322;50.872;4.386;2023-02-11T01:05:16;4.30;;;3.60;;
14472;SDS011;7322;50.872;4.386;2023-02-11T01:07:50;3.63;;;3.13;;
14472;SDS011;7322;50.872;4.386;2023-02-11T01:10:17;3.53;;;3.20;;
14472;SDS011;7322;50.872;4.386;2023-02-11T01:12:45;3.80;;;3.17;;
14472;SDS011;7322;50.872;4.386;2023-02-11T01:18:03;3.40;;;3.10;;
14472;SDS011;7322;50.872;4.386;2023-02-11T01:20:33;5.23;;;3.50;;
14472;SDS011;7322;50.872;4.386;2023-02-11T01:23:11;4.33;;;3.60;;
14472;SDS011;7322;50.872;4.386;2023-02-11T01:25:40;4.63;;;3.43;;
14472;SDS011;7322;50.872;4.386;2023-02-11T01:28:10;4.30;;;3.13;;
14472;SDS011;7322;50.872;4.386;2023-02-11T01:30:42;4.53;;;3.13;;
14472;SDS011;7322;50.872;4.386;2023-02-11T01:33:16;5.03;;;3.10;;
14472;SDS011;7322;50.872;4.386;2023-02-11T01:35:45;4.10;;;3.07;;
14472;SDS011;7322;50.872;4.386;2023-02-11T01:40:47;5.17;;;2.63;;
14472;SDS011;7322;50.872;4.386;2023-02-11T01:43:16;4.17;;;3.20;;
14472;SDS011;7322;50.872;4.386;2023-02-11T01:51:45;3.80;;;3.03;;
14472;SDS011;7322;50.872;4.386;2023-02-11T01:54:14;2.80;;;2.43;;
14472;SDS011;7322;50.872;4.386;2023-02-11T01:57:04;3.90;;;3.20;;
14472;SDS011;7322;50.872;4.386;2023-02-11T02:00:04;4.80;;;3.03;;
14472;SDS011;7322;50.872;4.386;2023-02-11T02:02:36;3.93;;;3.00;;
14472;SDS011;7322;50.872;4.386;2023-02-11T02:05:21;4.60;;;3.20;;
14472;SDS011;7322;50.872;4.386;2023-02-11T02:08:02;3.40;;;2.70;;
14472;SDS011;7322;50.872;4.386;2023-02-11T02:10:42;3.90;;;2.90;;
14472;SDS011;7322;50.872;4.386;2023-02-11T02:13:17;4.77;;;2.80;;
14472;SDS011;7322;50.872;4.386;2023-02-11T02:15:53;3.43;;;2.93;;
14472;SDS011;7322;50.872;4.386;2023-02-11T02:18:30;3.83;;;3.13;;
14472;SDS011;7322;50.872;4.386;2023-02-11T02:24:30;3.50;;;2.70;;
14472;SDS011;7322;50.872;4.386;2023-02-11T02:36:05;3.47;;;2.80;;
14472;SDS011;7322;50.872;4.386;2023-02-11T02:38:41;3.90;;;2.90;;
14472;SDS011;7322;50.872;4.386;2023-02-11T02:41:13;3.87;;;2.90;;
14472;SDS011;7322;50.872;4.386;2023-02-11T02:49:11;2.97;;;2.40;;
14472;SDS011;7322;50.872;4.386;2023-02-11T02:51:52;3.83;;;2.80;;
14472;SDS011;7322;50.872;4.386;2023-02-11T02:57:41;2.90;;;2.23;;
14472;SDS011;7322;50.872;4.386;2023-02-11T03:00:28;3.30;;;2.70;;
14472;SDS011;7322;50.872;4.386;2023-02-11T03:09:05;3.87;;;2.50;;
14472;SDS011;7322;50.872;4.386;2023-02-11T03:11:46;3.23;;;2.30;;
14472;SDS011;7322;50.872;4.386;2023-02-11T03:16:47;4.07;;;2.83;;
14472;SDS011;7322;50.872;4.386;2023-02-11T03:19:17;4.03;;;2.30;;
14472;SDS011;7322;50.872;4.386;2023-02-11T03:21:59;4.23;;;2.57;;
14472;SDS011;7322;50.872;4.386;2023-02-11T03:30:00;4.07;;;2.53;;
14472;SDS011;7322;50.872;4.386;2023-02-11T03:32:39;2.50;;;2.30;;
14472;SDS011;7322;50.872;4.386;2023-02-11T03:35:19;3.30;;;2.27;;
14472;SDS011;7322;50.872;4.386;2023-02-11T03:38:03;2.53;;;2.20;;
14472;SDS011;7322;50.872;4.386;2023-02-11T03:40:47;3.07;;;2.40;;
14472;SDS011;7322;50.872;4.386;2023-02-11T03:43:17;3.17;;;2.33;;
14472;SDS011;7322;50.872;4.386;2023-02-11T03:48:47;3.53;;;2.07;;
14472;SDS011;7322;50.872;4.386;2023-02-11T03:51:17;3.13;;;2.27;;
14472;SDS011;7322;50.872;4.386;2023-02-11T03:53:48;2.70;;;2.00;;
14472;SDS011;7322;50.872;4.386;2023-02-11T04:01:46;3.13;;;2.10;;
14472;SDS011;7322;50.872;4.386;2023-02-11T04:06:51;2.80;;;2.17;;
14472;SDS011;7322;50.872;4.386;2023-02-11T04:09:20;2.90;;;2.13;;
14472;SDS011;7322;50.872;4.386;2023-02-11T04:11:54;2.40;;;2.03;;
14472;SDS011;7322;50.872;4.386;2023-02-11T04:14:27;2.90;;;2.00;;
14472;SDS011;7322;50.872;4.386;2023-02-11T04:19:33;3.27;;;2.13;;
14472;SDS011;7322;50.872;4.386;2023-02-11T04:22:02;3.27;;;1.93;;
14472;SDS011;7322;50.872;4.386;2023-02-11T04:24:30;3.53;;;1.87;;
14472;SDS011;7322;50.872;4.386;2023-02-11T04:26:57;2.67;;;1.70;;
14472;SDS011;7322;50.872;4.386;2023-02-11T04:29:24;3.67;;;2.20;;
14472;SDS011;7322;50.872;4.386;2023-02-11T04:31:52;2.73;;;2.03;;
14472;SDS011;7322;50.872;4.386;2023-02-11T04:34:24;3.33;;;2.10;;
14472;SDS011;7322;50.872;4.386;2023-02-11T04:36:57;2.87;;;1.90;;
14472;SDS011;7322;50.872;4.386;2023-02-11T04:39:24;2.80;;;2.10;;
14472;SDS011;7322;50.872;4.386;2023-02-11T04:44:42;3.40;;;2.20;;
14472;SDS011;7322;50.872;4.386;2023-02-11T04:47:12;2.70;;;1.97;;
14472;SDS011;7322;50.872;4.386;2023-02-11T04:49:45;2.73;;;2.00;;
14472;SDS011;7322;50.872;4.386;2023-02-11T04:52:21;1.90;;;1.80;;
14472;SDS011;7322;50.872;4.386;2023-02-11T04:54:49;2.90;;;2.00;;
14472;SDS011;7322;50.872;4.386;2023-02-11T04:57:18;2.47;;;1.60;;
14472;SDS011;7322;50.872;4.386;2023-02-11T04:59:46;2.17;;;1.60;;
14472;SDS011;7322;50.872;4.386;2023-02-11T05:02:29;1.80;;;1.53;;
14472;SDS011;7322;50.872;4.386;2023-02-11T05:05:03;2.23;;;1.70;;
14472;SDS011;7322;50.872;4.386;2023-02-11T05:07:40;2.90;;;2.00;;
14472;SDS011;7322;50.872;4.386;2023-02-11T05:10:13;2.47;;;1.70;;
14472;SDS011;7322;50.872;4.386;2023-02-11T05:12:43;2.23;;;1.60;;
14472;SDS011;7322;50.872;4.386;2023-02-11T05:15:12;4.27;;;1.97;;
14472;SDS011;7322;50.872;4.386;2023-02-11T05:20:26;2.17;;;1.67;;
14472;SDS011;7322;50.872;4.386;2023-02-11T05:26:17;2.43;;;1.80;;
14472;SDS011;7322;50.872;4.386;2023-02-11T05:31:16;2.67;;;1.70;;
14472;SDS011;7322;50.872;4.386;2023-02-11T05:33:46;2.47;;;1.70;;
14472;SDS011;7322;50.872;4.386;2023-02-11T05:36:14;2.43;;;1.83;;
14472;SDS011;7322;50.872;4.386;2023-02-11T05:38:43;2.73;;;1.70;;
14472;SDS011;7322;50.872;4.386;2023-02-11T05:41:16;2.20;;;1.67;;
14472;SDS011;7322;50.872;4.386;2023-02-11T05:43:57;2.00;;;1.60;;
14472;SDS011;7322;50.872;4.386;2023-02-11T05:46:24;1.67;;;1.30;;
14472;SDS011;7322;50.872;4.386;2023-02-11T05:48:52;2.77;;;1.70;;
14472;SDS011;7322;50.872;4.386;2023-02-11T05:51:27;3.30;;;1.83;;
14472;SDS011;7322;50.872;4.386;2023-02-11T05:53:56;3.30;;;1.90;;
14472;SDS011;7322;50.872;4.386;2023-02-11T05:56:23;4.97;;;1.93;;
14472;SDS011;7322;50.872;4.386;2023-02-11T05:59:00;5.37;;;2.43;;
14472;SDS011;7322;50.872;4.386;2023-02-11T06:01:33;5.97;;;2.20;;
14472;SDS011;7322;50.872;4.386;2023-02-11T06:04:01;7.63;;;2.40;;
14472;SDS011;7322;50.872;4.386;2023-02-11T06:06:36;8.73;;;2.80;;
14472;SDS011;7322;50.872;4.386;2023-02-11T06:09:05;6.90;;;2.30;;
14472;SDS011;7322;50.872;4.386;2023-02-11T06:11:32;8.27;;;2.40;;
14472;SDS011;7322;50.872;4.386;2023-02-11T06:16:55;7.63;;;2.30;;
14472;SDS011;7322;50.872;4.386;2023-02-11T06:19:23;8.17;;;2.40;;
14472;SDS011;7322;50.872;4.386;2023-02-11T06:21:52;7.43;;;2.30;;
14472;SDS011;7322;50.872;4.386;2023-02-11T06:24:31;8.77;;;2.30;;
14472;SDS011;7322;50.872;4.386;2023-02-11T06:27:08;7.20;;;2.33;;
14472;SDS011;7322;50.872;4.386;2023-02-11T06:32:15;6.27;;;2.40;;
14472;SDS011;7322;50.872;4.386;2023-02-11T06:34:58;6.90;;;2.20;;
14472;SDS011;7322;50.872;4.386;2023-02-11T06:37:32;5.33;;;2.30;;
14472;SDS011;7322;50.872;4.386;2023-02-11T06:40:04;7.23;;;2.23;;
14472;SDS011;7322;50.872;4.386;2023-02-11T06:42:38;5.73;;;2.33;;
14472;SDS011;7322;50.872;4.386;2023-02-11T06:47:45;7.00;;;2.33;;
14472;SDS011;7322;50.872;4.386;2023-02-11T06:50:19;7.23;;;2.40;;
14472;SDS011;7322;50.872;4.386;2023-02-11T06:52:48;7.00;;;2.30;;
14472;SDS011;7322;50.872;4.386;2023-02-11T06:55:17;6.07;;;2.53;;
14472;SDS011;7322;50.872;4.386;2023-02-11T06:57:53;6.90;;;2.33;;
14472;SDS011;7322;50.872;4.386;2023-02-11T07:00:26;7.40;;;2.30;;
14472;SDS011;7322;50.872;4.386;2023-02-11T07:08:04;8.23;;;2.50;;
14472;SDS011;7322;50.872;4.386;2023-02-11T07:13:24;7.80;;;2.77;;
14472;SDS011;7322;50.872;4.386;2023-02-11T07:15:55;8.73;;;3.13;;
14472;SDS011;7322;50.872;4.386;2023-02-11T07:18:29;9.63;;;3.20;;
14472;SDS011;7322;50.872;4.386;2023-02-11T07:21:03;18.07;;;3.50;;
14472;SDS011;7322;50.872;4.386;2023-02-11T07:26:13;9.90;;;3.13;;
14472;SDS011;7322;50.872;4.386;2023-02-11T07:28:47;8.77;;;3.23;;
14472;SDS011;7322;50.872;4.386;2023-02-11T07:31:23;14.07;;;3.27;;
14472;SDS011;7322;50.872;4.386;2023-02-11T07:33:52;11.50;;;3.10;;
14472;SDS011;7322;50.872;4.386;2023-02-11T07:36:22;7.50;;;2.90;;
14472;SDS011;7322;50.872;4.386;2023-02-11T07:38:49;8.87;;;3.03;;
14472;SDS011;7322;50.872;4.386;2023-02-11T07:41:17;8.33;;;3.37;;
14472;SDS011;7322;50.872;4.386;2023-02-11T07:43:45;8.30;;;3.17;;
14472;SDS011;7322;50.872;4.386;2023-02-11T07:46:16;6.93;;;3.07;;
14472;SDS011;7322;50.872;4.386;2023-02-11T07:48:48;9.63;;;3.13;;
14472;SDS011;7322;50.872;4.386;2023-02-11T07:51:17;8.63;;;3.10;;
14472;SDS011;7322;50.872;4.386;2023-02-11T07:53:53;10.00;;;2.60;;
14472;SDS011;7322;50.872;4.386;2023-02-11T07:56:28;9.80;;;3.37;;
14472;SDS011;7322;50.872;4.386;2023-02-11T07:59:03;7.27;;;2.70;;
14472;SDS011;7322;50.872;4.386;2023-02-11T08:01:32;7.07;;;2.63;;
14472;SDS011;7322;50.872;4.386;2023-02-11T08:04:01;11.63;;;3.17;;
14472;SDS011;7322;50.872;4.386;2023-02-11T08:06:30;7.43;;;3.23;;
14472;SDS011;7322;50.872;4.386;2023-02-11T08:09:02;7.13;;;3.37;;
14472;SDS011;7322;50.872;4.386;2023-02-11T08:11:33;8.90;;;3.93;;
14472;SDS011;7322;50.872;4.386;2023-02-11T08:14:11;9.53;;;3.80;;
14472;SDS011;7322;50.872;4.386;2023-02-11T08:19:36;10.20;;;3.67;;
14472;SDS011;7322;50.872;4.386;2023-02-11T08:22:04;7.80;;;3.20;;
14472;SDS011;7322;50.872;4.386;2023-02-11T08:24:33;7.77;;;4.00;;
14472;SDS011;7322;50.872;4.386;2023-02-11T08:27:09;7.27;;;3.70;;
14472;SDS011;7322;50.872;4.386;2023-02-11T08:29:44;8.80;;;4.20;;
14472;SDS011;7322;50.872;4.386;2023-02-11T08:32:18;6.37;;;3.60;;
14472;SDS011;7322;50.872;4.386;2023-02-11T08:35:04;10.80;;;3.80;;
14472;SDS011;7322;50.872;4.386;2023-02-11T08:37:34;8.93;;;3.60;;
14472;SDS011;7322;50.872;4.386;2023-02-11T08:40:17;8.63;;;3.80;;
14472;SDS011;7322;50.872;4.386;2023-02-11T08:42:59;6.00;;;3.30;;
14472;SDS011;7322;50.872;4.386;2023-02-11T08:45:38;7.33;;;3.60;;
14472;SDS011;7322;50.872;4.386;2023-02-11T08:48:06;6.37;;;3.50;;
14472;SDS011;7322;50.872;4.386;2023-02-11T08:50:37;6.27;;;3.30;;
14472;SDS011;7322;50.872;4.386;2023-02-11T08:53:10;9.03;;;3.63;;
14472;SDS011;7322;50.872;4.386;2023-02-11T08:55:52;8.17;;;3.10;;
14472;SDS011;7322;50.872;4.386;2023-02-11T08:58:22;7.87;;;3.40;;
14472;SDS011;7322;50.872;4.386;2023-02-11T09:00:49;6.63;;;3.20;;
14472;SDS011;7322;50.872;4.386;2023-02-11T09:03:16;7.67;;;3.07;;
14472;SDS011;7322;50.872;4.386;2023-02-11T09:05:49;9.10;;;3.90;;
14472;SDS011;7322;50.872;4.386;2023-02-11T09:08:32;5.53;;;3.20;;
14472;SDS011;7322;50.872;4.386;2023-02-11T09:13:33;8.27;;;3.40;;
14472;SDS011;7322;50.872;4.386;2023-02-11T09:16:01;8.53;;;3.80;;
14472;SDS011;7322;50.872;4.386;2023-02-11T09:21:22;8.67;;;3.83;;
14472;SDS011;7322;50.872;4.386;2023-02-11T09:23:56;8.47;;;4.37;;
14472;SDS011;7322;50.872;4.386;2023-02-11T09:26:33;7.03;;;3.67;;
14472;SDS011;7322;50.872;4.386;2023-02-11T09:31:56;6.03;;;3.70;;
14472;SDS011;7322;50.872;4.386;2023-02-11T09:34:26;6.67;;;3.70;;
14472;SDS011;7322;50.872;4.386;2023-02-11T09:39:33;11.97;;;6.10;;
14472;SDS011;7322;50.872;4.386;2023-02-11T09:45:23;29.00;;;18.60;;
14472;SDS011;7322;50.872;4.386;2023-02-11T09:47:58;28.23;;;18.10;;
14472;SDS011;7322;50.872;4.386;2023-02-11T09:50:33;28.27;;;17.63;;
14472;SDS011;7322;50.872;4.386;2023-02-11T09:53:12;25.63;;;16.87;;
14472;SDS011;7322;50.872;4.386;2023-02-11T09:58:23;22.93;;;15.57;;
14472;SDS011;7322;50.872;4.386;2023-02-11T10:01:01;22.03;;;15.03;;
14472;SDS011;7322;50.872;4.386;2023-02-11T10:03:48;23.60;;;14.43;;
14472;SDS011;7322;50.872;4.386;2023-02-11T10:06:43;21.90;;;14.20;;
14472;SDS011;7322;50.872;4.386;2023-02-11T10:09:36;22.60;;;14.47;;
14472;SDS011;7322;50.872;4.386;2023-02-11T10:12:18;19.70;;;14.43;;
14472;SDS011;7322;50.872;4.386;2023-02-11T10:18:05;19.93;;;13.63;;
14472;SDS011;7322;50.872;4.386;2023-02-11T10:20:46;19.03;;;12.73;;
14472;SDS011;7322;50.872;4.386;2023-02-11T10:23:28;20.40;;;13.17;;
14472;SDS011;7322;50.872;4.386;2023-02-11T10:28:41;20.93;;;12.87;;
14472;SDS011;7322;50.872;4.386;2023-02-11T10:31:20;20.53;;;12.30;;
14472;SDS011;7322;50.872;4.386;2023-02-11T10:33:50;20.10;;;12.47;;
14472;SDS011;7322;50.872;4.386;2023-02-11T10:36:23;16.73;;;11.97;;
14472;SDS011;7322;50.872;4.386;2023-02-11T10:38:54;17.87;;;11.97;;
14472;SDS011;7322;50.872;4.386;2023-02-11T10:44:05;16.07;;;10.97;;
14472;SDS011;7322;50.872;4.386;2023-02-11T10:46:35;17.53;;;11.83;;
14472;SDS011;7322;50.872;4.386;2023-02-11T10:49:04;17.40;;;11.43;;
14472;SDS011;7322;50.872;4.386;2023-02-11T10:51:32;15.60;;;10.47;;
14472;SDS011;7322;50.872;4.386;2023-02-11T10:54:17;15.93;;;10.57;;
14472;SDS011;7322;50.872;4.386;2023-02-11T10:56:48;15.73;;;10.17;;
14472;SDS011;7322;50.872;4.386;2023-02-11T10:59:18;14.67;;;10.37;;
14472;SDS011;7322;50.872;4.386;2023-02-11T11:01:53;16.33;;;10.67;;
14472;SDS011;7322;50.872;4.386;2023-02-11T11:04:42;17.23;;;11.20;;
14472;SDS011;7322;50.872;4.386;2023-02-11T11:07:12;15.43;;;9.60;;
14472;SDS011;7322;50.872;4.386;2023-02-11T11:12:36;16.13;;;9.37;;
14472;SDS011;7322;50.872;4.386;2023-02-11T11:15:14;13.13;;;9.67;;
14472;SDS011;7322;50.872;4.386;2023-02-11T11:20:53;16.00;;;9.67;;
14472;SDS011;7322;50.872;4.386;2023-02-11T11:26:51;12.33;;;8.67;;
14472;SDS011;7322;50.872;4.386;2023-02-11T11:29:25;15.10;;;9.13;;
14472;SDS011;7322;50.872;4.386;2023-02-11T11:32:03;13.57;;;8.90;;
14472;SDS011;7322;50.872;4.386;2023-02-11T11:34:41;13.97;;;8.40;;
14472;SDS011;7322;50.872;4.386;2023-02-11T11:37:27;11.97;;;8.40;;
14472;SDS011;7322;50.872;4.386;2023-02-11T11:40:02;13.23;;;8.80;;
14472;SDS011;7322;50.872;4.386;2023-02-11T11:48:42;12.87;;;8.07;;
14472;SDS011;7322;50.872;4.386;2023-02-11T11:51:14;12.90;;;8.37;;
14472;SDS011;7322;50.872;4.386;2023-02-11T11:53:47;13.27;;;8.47;;
14472;SDS011;7322;50.872;4.386;2023-02-11T11:56:21;12.33;;;8.20;;
14472;SDS011;7322;50.872;4.386;2023-02-11T11:58:51;12.73;;;7.70;;
14472;SDS011;7322;50.872;4.386;2023-02-11T12:01:24;11.60;;;8.30;;
14472;SDS011;7322;50.872;4.386;2023-02-11T12:04:06;12.33;;;8.33;;
14472;SDS011;7322;50.872;4.386;2023-02-11T12:06:57;11.30;;;8.20;;
14472;SDS011;7322;50.872;4.386;2023-02-11T12:09:39;12.93;;;8.43;;
14472;SDS011;7322;50.872;4.386;2023-02-11T12:12:20;13.17;;;8.07;;
14472;SDS011;7322;50.872;4.386;2023-02-11T12:14:58;12.07;;;7.80;;
14472;SDS011;7322;50.872;4.386;2023-02-11T12:17:43;10.67;;;8.17;;
14472;SDS011;7322;50.872;4.386;2023-02-11T12:20:36;12.00;;;7.90;;
14472;SDS011;7322;50.872;4.386;2023-02-11T12:23:21;10.93;;;7.57;;
14472;SDS011;7322;50.872;4.386;2023-02-11T12:26:03;11.73;;;7.47;;
14472;SDS011;7322;50.872;4.386;2023-02-11T12:28:36;10.63;;;7.73;;
14472;SDS011;7322;50.872;4.386;2023-02-11T12:31:14;10.43;;;7.47;;
14472;SDS011;7322;50.872;4.386;2023-02-11T12:34:03;9.63;;;7.20;;
14472;SDS011;7322;50.872;4.386;2023-02-11T12:36:49;12.57;;;7.70;;
14472;SDS011;7322;50.872;4.386;2023-02-11T12:39:36;8.53;;;6.80;;
14472;SDS011;7322;50.872;4.386;2023-02-11T12:42:26;11.60;;;7.33;;
14472;SDS011;7322;50.872;4.386;2023-02-11T12:45:33;10.67;;;7.03;;
14472;SDS011;7322;50.872;4.386;2023-02-11T12:48:20;10.73;;;7.33;;
14472;SDS011;7322;50.872;4.386;2023-02-11T12:51:03;10.63;;;7.50;;
14472;SDS011;7322;50.872;4.386;2023-02-11T12:53:54;11.37;;;7.03;;
14472;SDS011;7322;50.872;4.386;2023-02-11T12:56:45;9.90;;;7.00;;
14472;SDS011;7322;50.872;4.386;2023-02-11T12:59:19;11.30;;;7.37;;
14472;SDS011;7322;50.872;4.386;2023-02-11T13:01:57;9.93;;;6.97;;
14472;SDS011;7322;50.872;4.386;2023-02-11T13:04:28;9.40;;;6.73;;
14472;SDS011;7322;50.872;4.386;2023-02-11T13:07:08;9.10;;;6.70;;
14472;SDS011;7322;50.872;4.386;2023-02-11T13:09:48;10.27;;;7.03;;
14472;SDS011;7322;50.872;4.386;2023-02-11T13:12:21;9.33;;;6.73;;
14472;SDS011;7322;50.872;4.386;2023-02-11T13:15:08;10.53;;;7.67;;
14472;SDS011;7322;50.872;4.386;2023-02-11T13:17:42;11.97;;;7.33;;
14472;SDS011;7322;50.872;4.386;2023-02-11T13:20:19;11.43;;;7.20;;
14472;SDS011;7322;50.872;4.386;2023-02-11T13:22:58;10.77;;;7.20;;
14472;SDS011;7322;50.872;4.386;2023-02-11T13:25:33;12.17;;;7.23;;
14472;SDS011;7322;50.872;4.386;2023-02-11T13:31:01;12.27;;;7.80;;
14472;SDS011;7322;50.872;4.386;2023-02-11T13:33:32;10.00;;;7.07;;
14472;SDS011;7322;50.872;4.386;2023-02-11T13:36:17;10.13;;;7.33;;
14472;SDS011;7322;50.872;4.386;2023-02-11T13:38:59;9.87;;;7.40;;
14472;SDS011;7322;50.872;4.386;2023-02-11T13:41:36;8.47;;;7.10;;
14472;SDS011;7322;50.872;4.386;2023-02-11T13:44:16;10.20;;;7.20;;
14472;SDS011;7322;50.872;4.386;2023-02-11T13:46:57;10.20;;;7.40;;
14472;SDS011;7322;50.872;4.386;2023-02-11T13:49:28;9.10;;;7.40;;
14472;SDS011;7322;50.872;4.386;2023-02-11T13:51:59;11.10;;;7.37;;
14472;SDS011;7322;50.872;4.386;2023-02-11T13:54:34;10.30;;;7.63;;
14472;SDS011;7322;50.872;4.386;2023-02-11T13:59:59;10.67;;;7.57;;
14472;SDS011;7322;50.872;4.386;2023-02-11T14:02:29;9.60;;;7.27;;
14472;SDS011;7322;50.872;4.386;2023-02-11T14:08:23;9.77;;;7.57;;
14472;SDS011;7322;50.872;4.386;2023-02-11T14:11:40;10.37;;;6.93;;
14472;SDS011;7322;50.872;4.386;2023-02-11T14:14:15;10.07;;;7.20;;
14472;SDS011;7322;50.872;4.386;2023-02-11T14:19:47;9.73;;;6.70;;
14472;SDS011;7322;50.872;4.386;2023-02-11T14:22:16;8.73;;;7.47;;
14472;SDS011;7322;50.872;4.386;2023-02-11T14:24:50;9.30;;;7.40;;
14472;SDS011;7322;50.872;4.386;2023-02-11T14:33:18;9.40;;;6.80;;
14472;SDS011;7322;50.872;4.386;2023-02-11T14:36:04;10.57;;;7.13;;
14472;SDS011;7322;50.872;4.386;2023-02-11T14:38:43;9.27;;;6.70;;
14472;SDS011;7322;50.872;4.386;2023-02-11T14:41:28;8.57;;;6.97;;
14472;SDS011;7322;50.872;4.386;2023-02-11T14:43:59;9.97;;;6.63;;
14472;SDS011;7322;50.872;4.386;2023-02-11T14:46:35;8.07;;;6.77;;
14472;SDS011;7322;50.872;4.386;2023-02-11T14:49:03;10.63;;;6.90;;
14472;SDS011;7322;50.872;4.386;2023-02-11T14:51:33;7.77;;;6.20;;
14472;SDS011;7322;50.872;4.386;2023-02-11T14:54:08;9.07;;;6.47;;
14472;SDS011;7322;50.872;4.386;2023-02-11T14:56:39;8.10;;;6.47;;
14472;SDS011;7322;50.872;4.386;2023-02-11T14:59:14;7.90;;;6.47;;
14472;SDS011;7322;50.872;4.386;2023-02-11T15:04:23;9.10;;;6.43;;
14472;SDS011;7322;50.872;4.386;2023-02-11T15:06:54;8.53;;;6.50;;
14472;SDS011;7322;50.872;4.386;2023-02-11T15:09:25;7.47;;;6.10;;
14472;SDS011;7322;50.872;4.386;2023-02-11T15:12:00;8.30;;;6.47;;
14472;SDS011;7322;50.872;4.386;2023-02-11T15:14:30;9.50;;;6.60;;
14472;SDS011;7322;50.872;4.386;2023-02-11T15:19:30;8.57;;;6.97;;
14472;SDS011;7322;50.872;4.386;2023-02-11T15:22:02;8.73;;;6.27;;
14472;SDS011;7322;50.872;4.386;2023-02-11T15:24:33;9.50;;;6.50;;
14472;SDS011;7322;50.872;4.386;2023-02-11T15:27:08;8.70;;;6.40;;
14472;SDS011;7322;50.872;4.386;2023-02-11T15:29:43;9.27;;;7.13;;
14472;SDS011;7322;50.872;4.386;2023-02-11T15:32:20;9.90;;;7.40;;
14472;SDS011;7322;50.872;4.386;2023-02-11T15:34:55;9.70;;;7.07;;
14472;SDS011;7322;50.872;4.386;2023-02-11T15:37:24;9.23;;;6.90;;
14472;SDS011;7322;50.872;4.386;2023-02-11T15:39:54;8.27;;;6.73;;
14472;SDS011;7322;50.872;4.386;2023-02-11T15:42:36;10.17;;;7.50;;
14472;SDS011;7322;50.872;4.386;2023-02-11T15:45:09;9.20;;;6.83;;
14472;SDS011;7322;50.872;4.386;2023-02-11T15:47:49;8.80;;;6.63;;
14472;SDS011;7322;50.872;4.386;2023-02-11T15:50:18;9.07;;;6.77;;
14472;SDS011;7322;50.872;4.386;2023-02-11T15:52:46;9.87;;;7.20;;
14472;SDS011;7322;50.872;4.386;2023-02-11T15:55:16;9.20;;;7.17;;
14472;SDS011;7322;50.872;4.386;2023-02-11T15:57:48;10.83;;;7.17;;
14472;SDS011;7322;50.872;4.386;2023-02-11T16:00:20;9.30;;;7.03;;
14472;SDS011;7322;50.872;4.386;2023-02-11T16:02:57;8.13;;;7.00;;
14472;SDS011;7322;50.872;4.386;2023-02-11T16:05:25;9.40;;;7.20;;
14472;SDS011;7322;50.872;4.386;2023-02-11T16:07:56;7.83;;;7.03;;
14472;SDS011;7322;50.872;4.386;2023-02-11T16:10:25;12.10;;;8.07;;
14472;SDS011;7322;50.872;4.386;2023-02-11T16:12:55;9.63;;;7.57;;
14472;SDS011;7322;50.872;4.386;2023-02-11T16:15:50;9.13;;;7.37;;
14472;SDS011;7322;50.872;4.386;2023-02-11T16:20:56;8.40;;;6.90;;
14472;SDS011;7322;50.872;4.386;2023-02-11T16:23:24;7.73;;;6.50;;
14472;SDS011;7322;50.872;4.386;2023-02-11T16:25:56;8.50;;;6.63;;
14472;SDS011;7322;50.872;4.386;2023-02-11T16:28:28;7.93;;;7.03;;
14472;SDS011;7322;50.872;4.386;2023-02-11T16:30:57;8.83;;;6.73;;
14472;SDS011;7322;50.872;4.386;2023-02-11T16:33:25;8.20;;;7.07;;
14472;SDS011;7322;50.872;4.386;2023-02-11T16:35:54;9.10;;;7.33;;
14472;SDS011;7322;50.872;4.386;2023-02-11T16:38:33;8.70;;;7.43;;
14472;SDS011;7322;50.872;4.386;2023-02-11T16:41:00;8.53;;;7.63;;
14472;SDS011;7322;50.872;4.386;2023-02-11T16:43:28;9.53;;;7.63;;
14472;SDS011;7322;50.872;4.386;2023-02-11T16:45:58;9.83;;;7.60;;
14472;SDS011;7322;50.872;4.386;2023-02-11T16:48:33;9.33;;;7.83;;
14472;SDS011;7322;50.872;4.386;2023-02-11T16:51:07;10.40;;;8.13;;
14472;SDS011;7322;50.872;4.386;2023-02-11T16:53:37;10.37;;;8.10;;
14472;SDS011;7322;50.872;4.386;2023-02-11T16:56:04;10.33;;;8.03;;
14472;SDS011;7322;50.872;4.386;2023-02-11T16:58:33;8.43;;;7.40;;
14472;SDS011;7322;50.872;4.386;2023-02-11T17:01:01;9.30;;;7.47;;
14472;SDS011;7322;50.872;4.386;2023-02-11T17:03:29;8.83;;;7.83;;
14472;SDS011;7322;50.872;4.386;2023-02-11T17:06:01;10.90;;;7.97;;
14472;SDS011;7322;50.872;4.386;2023-02-11T17:08:31;11.57;;;8.43;;
14472;SDS011;7322;50.872;4.386;2023-02-11T17:11:01;9.57;;;8.57;;
14472;SDS011;7322;50.872;4.386;2023-02-11T17:13:29;9.10;;;8.20;;
14472;SDS011;7322;50.872;4.386;2023-02-11T17:15:56;8.83;;;7.67;;
14472;SDS011;7322;50.872;4.386;2023-02-11T17:18:30;8.37;;;7.33;;
14472;SDS011;7322;50.872;4.386;2023-02-11T17:20:58;9.50;;;8.10;;
14472;SDS011;7322;50.872;4.386;2023-02-11T17:23:25;9.30;;;7.83;;
14472;SDS011;7322;50.872;4.386;2023-02-11T17:25:58;11.30;;;8.00;;
14472;SDS011;7322;50.872;4.386;2023-02-11T17:28:26;8.67;;;7.80;;
14472;SDS011;7322;50.872;4.386;2023-02-11T17:31:00;8.33;;;7.50;;
14472;SDS011;7322;50.872;4.386;2023-02-11T17:33:40;8.20;;;7.50;;
14472;SDS011;7322;50.872;4.386;2023-02-11T17:36:07;8.70;;;7.77;;
14472;SDS011;7322;50.872;4.386;2023-02-11T17:38:40;7.80;;;7.07;;
14472;SDS011;7322;50.872;4.386;2023-02-11T17:41:13;9.87;;;7.50;;
14472;SDS011;7322;50.872;4.386;2023-02-11T17:43:40;10.30;;;8.00;;
14472;SDS011;7322;50.872;4.386;2023-02-11T17:46:08;12.13;;;8.07;;
14472;SDS011;7322;50.872;4.386;2023-02-11T18:05:12;9.40;;;8.50;;
14472;SDS011;7322;50.872;4.386;2023-02-11T18:07:46;10.77;;;8.90;;
14472;SDS011;7322;50.872;4.386;2023-02-11T18:13:09;12.00;;;8.93;;
14472;SDS011;7322;50.872;4.386;2023-02-11T18:15:44;10.37;;;8.73;;
14472;SDS011;7322;50.872;4.386;2023-02-11T18:18:12;9.60;;;8.53;;
14472;SDS011;7322;50.872;4.386;2023-02-11T18:23:28;10.67;;;9.53;;
14472;SDS011;7322;50.872;4.386;2023-02-11T18:26:05;11.67;;;9.90;;
14472;SDS011;7322;50.872;4.386;2023-02-11T18:28:41;14.07;;;9.53;;
14472;SDS011;7322;50.872;4.386;2023-02-11T18:31:15;11.00;;;9.20;;
14472;SDS011;7322;50.872;4.386;2023-02-11T18:33:45;11.83;;;10.00;;
14472;SDS011;7322;50.872;4.386;2023-02-11T18:36:20;13.03;;;9.47;;
14472;SDS011;7322;50.872;4.386;2023-02-11T18:38:48;12.77;;;9.03;;
14472;SDS011;7322;50.872;4.386;2023-02-11T18:41:17;11.17;;;9.40;;
14472;SDS011;7322;50.872;4.386;2023-02-11T18:43:45;10.80;;;8.80;;
14472;SDS011;7322;50.872;4.386;2023-02-11T18:46:13;11.30;;;8.90;;